Главная страница
METAR-TAF:

METAR-TAF

Аэропорты :

Somerset Airport

Сомервилл, Нью-Джерси, США

широта: 40-37-26N, долгота: 074-40-10W, высота над уровнем моря: 32 м

Текущие метеонаблюдения

Эта сводка был подготовлена 8 минут назад, в 15:53 UTC
Ветер 4 Узел от западно-северо-западный
Температура 7°C
Влажность 42%
Давление 1023 hPa
Видимость: 16.1 км
ясное небо

METAR: KSMQ 151553Z AUTO 30004KT 10SM CLR 07/M05 A3021 RMK AO2 SLP230 T00721050 $

Время: 11:01 (16:01 UTC)


TAF: отсутствует

Метеонаблюдения и прогнозы для более 4000 аэропортов (сводки METAR и TAF).

Имеющиеся станции представлены на карте желтыми и красными точками.

Чтобы увидеть название станции, наведите на нее мышь.

Затем щелкните, чтобы увидеть метеонаблюдения и метеопрогнозы.

Управление картой: чтобы увеличить масштаб, щелкните зеленые кнопки с черным крестиком; чтобы уменьшить масштаб, щелкните зеленую кнопку с тире; для просмотра соседних карт щелкайте зеленые стрелки.


METAR-TAF: